Time;durP1;ratioP1;P1;durP2;ratioP2;P2;SDS_P1;SDS_P2;PMS_P1;PMS_P2;Temp;Humidity;BMP_temperature;BMP_pressure;BME280_temperature;BME280_humidity;BME280_pressure;Samples;Min_cycle;Max_cycle;Signal;HPM_P1;HPM_P2
2023/06/07 00:01:13;;;;;;;11.48;6.57;;;11.30;99.90;;;;;;5054287;28;20498;-34
2023/06/07 00:03:38;;;;;;;12.23;6.40;;;11.30;99.90;;;;;;5054093;28;20051;-34
2023/06/07 00:06:05;;;;;;;11.38;7.13;;;11.20;99.90;;;;;;5054262;28;20033;-33
2023/06/07 00:08:31;;;;;;;9.77;7.45;;;11.30;99.90;;;;;;5054120;28;20106;-33
2023/06/07 00:10:57;;;;;;;11.48;6.93;;;11.20;99.90;;;;;;5054035;28;20051;-33
2023/06/07 00:13:24;;;;;;;11.57;7.00;;;11.20;99.90;;;;;;5054165;28;20079;-32
2023/06/07 00:15:50;;;;;;;15.32;6.88;;;11.20;99.90;;;;;;5053706;28;20043;-33
2023/06/07 00:18:16;;;;;;;11.50;6.68;;;11.10;99.90;;;;;;5053642;28;20039;-33
2023/06/07 00:20:45;;;;;;;17.27;7.82;;;11.10;99.90;;;;;;5053947;28;20044;-32
2023/06/07 00:23:15;;;;;;;11.45;6.72;;;11.10;99.90;;;;;;5053981;28;20037;-34
2023/06/07 00:25:41;;;;;;;12.25;6.70;;;11.10;99.90;;;;;;5057114;28;20047;-33
2023/06/07 00:28:07;;;;;;;10.85;6.60;;;11.00;99.90;;;;;;5058095;28;20036;-33
2023/06/07 00:30:33;;;;;;;11.13;7.07;;;11.00;99.90;;;;;;5057655;28;20044;-33
2023/06/07 00:32:58;;;;;;;12.43;7.40;;;10.90;99.90;;;;;;5057882;28;20044;-33
2023/06/07 00:35:24;;;;;;;10.13;7.10;;;10.90;99.90;;;;;;5057729;28;20394;-33
2023/06/07 00:37:51;;;;;;;12.98;7.22;;;10.90;99.90;;;;;;5057610;28;20032;-33
2023/06/07 00:40:17;;;;;;;8.48;6.80;;;10.90;99.90;;;;;;5057460;28;20181;-33
2023/06/07 00:42:43;;;;;;;10.77;7.07;;;10.90;99.90;;;;;;5057460;28;20075;-33
2023/06/07 00:45:09;;;;;;;12.38;7.25;;;10.80;99.90;;;;;;5075725;28;20052;-34
2023/06/07 00:47:39;;;;;;;12.88;7.60;;;10.80;99.90;;;;;;5057770;28;20102;-33
2023/06/07 00:50:06;;;;;;;11.38;6.93;;;10.80;99.90;;;;;;5057666;28;20498;-33
2023/06/07 00:52:36;;;;;;;11.70;7.45;;;10.70;99.90;;;;;;5057387;28;20048;-33
2023/06/07 00:55:03;;;;;;;10.57;7.40;;;10.70;99.90;;;;;;5057537;28;20036;-33
2023/06/07 00:57:29;;;;;;;11.50;7.68;;;10.70;99.90;;;;;;5057543;28;20413;-33
2023/06/07 00:59:56;;;;;;;10.65;7.20;;;10.60;99.90;;;;;;5056990;28;20106;-33
2023/06/07 01:02:21;;;;;;;8.02;6.80;;;10.60;99.90;;;;;;5057148;28;20080;-33
2023/06/07 01:04:49;;;;;;;14.13;7.43;;;10.60;99.90;;;;;;5057326;28;20076;-34
2023/06/07 01:07:17;;;;;;;12.88;7.63;;;10.60;99.90;;;;;;5057430;28;20489;-33
2023/06/07 01:09:43;;;;;;;11.80;7.28;;;10.50;99.90;;;;;;5057044;28;20115;-33
2023/06/07 01:12:15;;;;;;;13.00;6.60;;;10.50;99.90;;;;;;5040308;28;20186;-34
2023/06/07 01:14:41;;;;;;;12.18;7.80;;;10.50;99.90;;;;;;5057232;28;20040;-34
2023/06/07 01:17:08;;;;;;;13.88;8.93;;;10.50;99.90;;;;;;5040412;28;20045;-34
2023/06/07 01:19:37;;;;;;;11.52;8.60;;;10.40;99.90;;;;;;5056766;28;20032;-34
2023/06/07 01:22:07;;;;;;;12.80;7.80;;;10.40;99.90;;;;;;5057089;28;20537;-34
2023/06/07 01:24:35;;;;;;;14.23;8.38;;;10.40;99.90;;;;;;5039972;28;20040;-34
2023/06/07 01:27:07;;;;;;;12.63;7.75;;;10.40;99.90;;;;;;5056656;28;20105;-34
2023/06/07 01:29:34;;;;;;;16.65;8.45;;;10.40;99.90;;;;;;5056554;28;20037;-34
2023/06/07 01:32:06;;;;;;;11.57;8.23;;;10.40;99.90;;;;;;5056810;28;20040;-34
2023/06/07 01:34:34;;;;;;;13.45;8.63;;;10.40;99.90;;;;;;5056874;28;20041;-34
2023/06/07 01:37:01;;;;;;;13.38;8.73;;;10.30;99.90;;;;;;5055760;28;20040;-33
2023/06/07 01:39:28;;;;;;;12.93;8.60;;;10.30;99.90;;;;;;5056074;28;20120;-34
2023/06/07 01:41:55;;;;;;;11.90;9.27;;;10.30;99.90;;;;;;5039753;28;20079;-33
2023/06/07 01:44:20;;;;;;;16.52;9.27;;;10.30;99.90;;;;;;5056527;28;20032;-33
2023/06/07 01:46:47;;;;;;;14.63;8.77;;;10.30;99.90;;;;;;5056628;28;20036;-34
2023/06/07 01:49:21;;;;;;;11.18;8.88;;;10.20;99.90;;;;;;5056125;28;20047;-33
2023/06/07 01:51:47;;;;;;;15.02;8.93;;;10.20;99.90;;;;;;5056391;28;20041;-33
2023/06/07 01:54:15;;;;;;;11.18;8.95;;;10.20;99.90;;;;;;5056010;28;20123;-34
2023/06/07 01:56:51;;;;;;;17.23;9.40;;;10.20;99.90;;;;;;5056410;28;20367;-33
2023/06/07 01:59:46;;;;;;;16.50;9.82;;;10.10;99.90;;;;;;5039403;28;20490;-34
2023/06/07 02:02:21;;;;;;;12.98;9.20;;;10.10;99.90;;;;;;5056307;28;20513;-34
2023/06/07 02:04:53;;;;;;;14.30;9.07;;;10.10;99.90;;;;;;5039559;28;20426;-33
2023/06/07 02:07:24;;;;;;;13.02;9.50;;;10.10;99.90;;;;;;5074153;28;20041;-33
2023/06/07 02:09:51;;;;;;;11.85;8.63;;;10.10;99.90;;;;;;5056049;28;20067;-33
2023/06/07 02:12:19;;;;;;;15.75;9.65;;;10.00;99.90;;;;;;5055755;28;20094;-33
2023/06/07 02:14:45;;;;;;;14.25;8.90;;;10.10;99.90;;;;;;5055795;28;20137;-33
2023/06/07 02:17:12;;;;;;;11.73;9.25;;;10.10;99.90;;;;;;5055951;28;20048;-33
2023/06/07 02:19:38;;;;;;;17.83;9.93;;;10.00;99.90;;;;;;5055963;28;20044;-34
2023/06/07 02:22:05;;;;;;;14.25;9.38;;;10.00;99.90;;;;;;5073682;28;20389;-34
2023/06/07 02:24:31;;;;;;;18.02;10.23;;;9.90;99.90;;;;;;5055590;28;20044;-33
2023/06/07 02:26:57;;;;;;;16.45;9.75;;;10.00;99.90;;;;;;5055892;28;20497;-33
2023/06/07 02:29:23;;;;;;;13.73;9.85;;;9.90;99.90;;;;;;5055682;28;20033;-33
2023/06/07 02:31:50;;;;;;;17.75;10.25;;;9.90;99.90;;;;;;5055599;28;20459;-34
2023/06/07 02:34:16;;;;;;;16.02;10.50;;;9.90;99.90;;;;;;5055556;28;20119;-32
2023/06/07 02:36:42;;;;;;;15.23;10.00;;;9.90;99.90;;;;;;5055628;28;20082;-33
2023/06/07 02:39:08;;;;;;;14.63;10.32;;;9.80;99.90;;;;;;5055185;28;20048;-33
2023/06/07 02:41:34;;;;;;;15.98;10.05;;;9.80;99.90;;;;;;5055273;28;20041;-33
2023/06/07 02:44:00;;;;;;;16.35;9.82;;;9.80;99.90;;;;;;5038528;28;20076;-32
2023/06/07 02:46:26;;;;;;;13.38;10.10;;;9.80;99.90;;;;;;5055225;28;20037;-32
2023/06/07 02:48:52;;;;;;;13.70;9.60;;;9.80;99.90;;;;;;5054876;28;20040;-32
2023/06/07 02:51:18;;;;;;;14.88;9.05;;;9.80;99.90;;;;;;5054896;28;20098;-32
2023/06/07 02:53:49;;;;;;;17.90;10.65;;;9.80;99.90;;;;;;5055298;28;20497;-36
2023/06/07 02:56:15;;;;;;;17.30;9.80;;;9.70;99.90;;;;;;5055163;28;20561;-32
2023/06/07 02:58:40;;;;;;;17.67;10.18;;;9.70;99.90;;;;;;5055180;28;20040;-32
2023/06/07 03:01:07;;;;;;;15.55;10.05;;;9.70;99.90;;;;;;5055038;28;20040;-32
2023/06/07 03:03:35;;;;;;;15.07;10.50;;;9.70;99.90;;;;;;5055037;28;20383;-33
2023/06/07 03:06:04;;;;;;;16.73;10.20;;;9.70;99.90;;;;;;5054919;28;20545;-33
2023/06/07 03:08:31;;;;;;;18.17;9.77;;;9.70;99.90;;;;;;5054510;28;20112;-33
2023/06/07 03:10:57;;;;;;;19.33;10.35;;;9.70;99.90;;;;;;5054801;28;20124;-33
2023/06/07 03:13:24;;;;;;;17.90;9.63;;;9.70;99.90;;;;;;5054756;28;20087;-32
2023/06/07 03:15:49;;;;;;;16.02;10.43;;;9.60;99.90;;;;;;5038009;28;20055;-32
2023/06/07 03:18:15;;;;;;;19.67;10.38;;;9.60;99.90;;;;;;5054766;28;20036;-32
2023/06/07 03:20:44;;;;;;;16.45;9.80;;;9.60;99.90;;;;;;5054465;28;20123;-32
2023/06/07 03:23:10;;;;;;;15.80;9.07;;;9.60;99.90;;;;;;5054321;28;20036;-33
2023/06/07 03:25:37;;;;;;;14.45;9.95;;;9.60;99.90;;;;;;5054438;28;20106;-33
2023/06/07 03:28:03;;;;;;;15.15;9.55;;;9.60;99.90;;;;;;5072104;28;20051;-32
2023/06/07 03:30:29;;;;;;;15.85;9.65;;;9.60;99.90;;;;;;5054470;28;20048;-33
2023/06/07 03:32:55;;;;;;;16.15;9.63;;;9.60;99.90;;;;;;5054613;28;20517;-33
2023/06/07 03:35:20;;;;;;;14.75;9.57;;;9.70;99.90;;;;;;5054157;28;20124;-32
2023/06/07 03:37:47;;;;;;;15.02;9.20;;;9.60;99.90;;;;;;5072074;28;20032;-32
2023/06/07 03:40:13;;;;;;;17.48;10.27;;;9.70;99.90;;;;;;5053931;28;20044;-31
2023/06/07 03:42:39;;;;;;;16.83;10.43;;;9.70;99.90;;;;;;5054098;28;20044;-33
2023/06/07 03:45:05;;;;;;;17.83;10.65;;;9.80;99.90;;;;;;5054311;28;20074;-33
2023/06/07 03:47:32;;;;;;;15.63;9.90;;;9.90;99.90;;;;;;5054360;28;20500;-33
2023/06/07 03:49:58;;;;;;;20.38;10.65;;;10.00;99.90;;;;;;5037442;28;20452;-33
2023/06/07 03:52:24;;;;;;;20.10;10.57;;;10.20;99.90;;;;;;5054011;28;20045;-33
2023/06/07 03:54:51;;;;;;;16.38;9.70;;;10.30;99.90;;;;;;5054312;28;20036;-32
2023/06/07 03:57:17;;;;;;;16.60;9.55;;;10.30;99.90;;;;;;5054161;28;20028;-34
2023/06/07 03:59:42;;;;;;;15.90;9.35;;;10.40;99.90;;;;;;5053915;28;20387;-32
2023/06/07 04:02:08;;;;;;;19.30;9.68;;;10.50;99.90;;;;;;5053781;28;20049;-33
2023/06/07 04:04:34;;;;;;;12.07;9.25;;;10.60;99.90;;;;;;5037845;28;20043;-33
2023/06/07 04:07:03;;;;;;;16.17;9.95;;;10.70;99.90;;;;;;5054120;28;20033;-32
2023/06/07 04:09:29;;;;;;;20.77;9.20;;;10.80;99.90;;;;;;5053739;28;20076;-32
2023/06/07 04:11:55;;;;;;;18.05;10.15;;;10.80;99.90;;;;;;5053961;28;20075;-33
2023/06/07 04:14:21;;;;;;;16.55;9.10;;;10.90;99.90;;;;;;5054127;28;20044;-32
2023/06/07 04:16:47;;;;;;;19.52;10.55;;;11.00;99.90;;;;;;5053670;28;20394;-32
2023/06/07 04:19:13;;;;;;;15.18;8.63;;;11.10;99.90;;;;;;5053968;28;20485;-33
2023/06/07 04:21:39;;;;;;;19.17;9.68;;;11.10;99.90;;;;;;5054037;28;20178;-32
2023/06/07 04:24:05;;;;;;;15.73;9.32;;;11.20;99.90;;;;;;5053961;28;20044;-33
2023/06/07 04:26:31;;;;;;;17.45;9.43;;;11.20;99.90;;;;;;5053847;28;20043;-33
2023/06/07 04:29:00;;;;;;;15.05;8.68;;;11.30;99.90;;;;;;5053766;28;20032;-33
2023/06/07 04:31:29;;;;;;;14.48;8.63;;;11.30;99.90;;;;;;5053565;28;20124;-33
2023/06/07 04:33:57;;;;;;;16.30;8.68;;;11.30;99.90;;;;;;5053629;28;20119;-33
2023/06/07 04:36:25;;;;;;;16.17;8.30;;;11.40;99.90;;;;;;5053517;28;20039;-33
2023/06/07 04:38:55;;;;;;;23.73;9.52;;;11.40;99.90;;;;;;5053715;28;20044;-32
2023/06/07 04:41:25;;;;;;;14.25;8.65;;;11.50;99.90;;;;;;5053957;28;20040;-33
2023/06/07 04:43:53;;;;;;;14.43;8.05;;;11.60;99.90;;;;;;5053524;28;20041;-32
2023/06/07 04:46:18;;;;;;;15.65;8.07;;;11.60;99.90;;;;;;5053084;28;20044;-33
2023/06/07 04:48:44;;;;;;;15.25;7.82;;;11.70;99.90;;;;;;5053700;28;20132;-32
2023/06/07 04:51:13;;;;;;;14.68;8.07;;;11.70;99.90;;;;;;5053596;28;20119;-32
2023/06/07 04:53:41;;;;;;;14.20;7.68;;;11.80;99.90;;;;;;5053419;28;20044;-32
2023/06/07 04:56:08;;;;;;;14.77;7.75;;;11.90;99.90;;;;;;5053793;28;20036;-33
2023/06/07 04:58:33;;;;;;;15.63;7.65;;;12.00;99.90;;;;;;5053161;28;20040;-33
2023/06/07 05:00:59;;;;;;;15.55;7.60;;;12.10;99.90;;;;;;5053327;28;20108;-33
2023/06/07 05:03:25;;;;;;;14.95;7.05;;;12.10;99.90;;;;;;5053415;28;20124;-33
2023/06/07 05:05:52;;;;;;;17.45;8.52;;;12.20;99.90;;;;;;5053783;28;20447;-33
2023/06/07 05:08:18;;;;;;;14.93;7.63;;;12.30;99.90;;;;;;5053512;28;20045;-33
2023/06/07 05:10:45;;;;;;;15.18;7.63;;;12.30;99.90;;;;;;5054907;28;20386;-32
2023/06/07 05:13:11;;;;;;;13.10;6.88;;;12.30;99.90;;;;;;5056913;28;20046;-33
2023/06/07 05:15:37;;;;;;;19.90;7.72;;;12.40;99.90;;;;;;5056842;28;20040;-32
2023/06/07 05:18:03;;;;;;;13.98;6.80;;;12.40;99.90;;;;;;5057007;28;20058;-33
2023/06/07 05:20:29;;;;;;;15.27;7.25;;;12.40;99.90;;;;;;5056978;28;20513;-33
2023/06/07 05:22:56;;;;;;;16.48;6.63;;;12.50;99.90;;;;;;5056688;28;20041;-33
2023/06/07 05:25:22;;;;;;;10.77;6.97;;;12.50;99.90;;;;;;5040388;28;20037;-33
2023/06/07 05:27:49;;;;;;;14.70;7.93;;;12.60;99.90;;;;;;5056955;28;20399;-33
2023/06/07 05:30:16;;;;;;;17.42;6.93;;;12.70;99.90;;;;;;5056440;28;20047;-33
2023/06/07 05:32:42;;;;;;;17.42;7.18;;;12.70;99.90;;;;;;5056733;28;20112;-33
2023/06/07 05:35:08;;;;;;;15.60;7.05;;;12.80;99.90;;;;;;5056428;28;20040;-34
2023/06/07 05:37:36;;;;;;;12.43;6.80;;;12.80;99.90;;;;;;5040125;28;20076;-33
2023/06/07 05:40:05;;;;;;;15.80;7.30;;;12.90;99.90;;;;;;5056283;28;20044;-33
2023/06/07 05:42:30;;;;;;;15.52;6.78;;;13.00;99.90;;;;;;5056543;28;20040;-33
2023/06/07 05:44:56;;;;;;;16.25;6.95;;;13.00;99.90;;;;;;5057032;28;20040;-33
2023/06/07 05:47:25;;;;;;;11.10;5.78;;;13.10;99.90;;;;;;5055549;28;20040;-33
2023/06/07 05:49:53;;;;;;;13.82;6.93;;;13.10;99.90;;;;;;5055803;28;20170;-34
2023/06/07 05:52:18;;;;;;;11.30;5.88;;;13.20;99.90;;;;;;5055404;28;20449;-33
2023/06/07 05:54:53;;;;;;;11.20;5.35;;;13.30;99.90;;;;;;5056402;28;20033;-33
2023/06/07 05:57:19;;;;;;;12.38;6.30;;;13.40;99.90;;;;;;5036500;28;20045;-32
2023/06/07 05:59:45;;;;;;;19.42;5.88;;;13.50;99.90;;;;;;5019582;28;20037;-33
2023/06/07 06:02:10;;;;;;;14.07;6.05;;;13.60;99.90;;;;;;5036286;28;20486;-33
2023/06/07 06:04:36;;;;;;;9.98;5.80;;;13.60;99.90;;;;;;5036305;28;20037;-33
2023/06/07 06:07:02;;;;;;;14.98;5.20;;;13.60;99.90;;;;;;5020248;28;20057;-33
2023/06/07 06:09:29;;;;;;;11.55;5.72;;;13.70;99.90;;;;;;5019543;28;20044;-33
2023/06/07 06:11:55;;;;;;;10.75;5.32;;;13.70;99.90;;;;;;5036783;28;20140;-33
2023/06/07 06:14:22;;;;;;;18.08;5.65;;;13.80;99.90;;;;;;5019674;28;20036;-33
2023/06/07 06:16:48;;;;;;;10.82;5.93;;;13.80;99.90;;;;;;5036102;28;20379;-33
2023/06/07 06:19:13;;;;;;;11.80;5.15;;;13.90;99.90;;;;;;5035819;28;20047;-33
2023/06/07 06:21:39;;;;;;;13.43;5.05;;;13.90;99.90;;;;;;5035427;28;20490;-33
2023/06/07 06:24:06;;;;;;;13.02;5.07;;;14.00;99.90;;;;;;5019126;28;20060;-34
2023/06/07 06:26:31;;;;;;;11.45;4.50;;;14.00;99.90;;;;;;5035484;28;20044;-33
2023/06/07 06:28:58;;;;;;;11.07;5.20;;;14.00;99.90;;;;;;5035568;28;20043;-33
2023/06/07 06:31:26;;;;;;;11.90;4.95;;;14.00;99.90;;;;;;5035254;28;20114;-33
2023/06/07 06:33:52;;;;;;;15.20;5.65;;;14.00;99.90;;;;;;5035734;28;20071;-33
2023/06/07 06:36:20;;;;;;;11.38;5.20;;;14.00;99.90;;;;;;5035668;28;20037;-33
2023/06/07 06:38:46;;;;;;;13.63;5.15;;;14.00;99.90;;;;;;5035179;28;20032;-33
2023/06/07 06:41:12;;;;;;;11.18;5.15;;;14.00;99.90;;;;;;5035275;28;20044;-33
2023/06/07 06:43:38;;;;;;;13.45;5.38;;;14.10;99.90;;;;;;5034998;28;20402;-33
2023/06/07 06:46:04;;;;;;;9.55;5.15;;;14.20;99.90;;;;;;5034721;28;20037;-33
2023/06/07 06:48:30;;;;;;;13.75;5.82;;;14.20;99.90;;;;;;5034794;28;20503;-33
2023/06/07 06:50:55;;;;;;;11.50;5.78;;;14.20;99.90;;;;;;5034803;28;20060;-34
2023/06/07 06:53:21;;;;;;;11.82;5.60;;;14.20;99.90;;;;;;5034095;28;20051;-33
2023/06/07 06:55:48;;;;;;;8.60;5.75;;;14.30;99.90;;;;;;5034510;28;20049;-33
2023/06/07 06:58:13;;;;;;;12.15;5.35;;;14.50;99.90;;;;;;5034737;28;20051;-33
2023/06/07 07:00:40;;;;;;;8.13;5.43;;;14.60;99.90;;;;;;5035114;28;20045;-33
2023/06/07 07:03:05;;;;;;;10.73;5.63;;;14.80;99.90;;;;;;5035162;28;20040;-33
2023/06/07 07:05:31;;;;;;;15.15;6.05;;;14.90;99.90;;;;;;5034819;28;20556;-33
2023/06/07 07:07:58;;;;;;;12.68;5.78;;;15.00;99.90;;;;;;5035108;28;20080;-33
2023/06/07 07:10:24;;;;;;;12.48;6.25;;;15.10;99.90;;;;;;5034782;28;20079;-33
2023/06/07 07:12:49;;;;;;;9.57;5.20;;;15.20;99.90;;;;;;5035077;28;20041;-33
2023/06/07 07:15:15;;;;;;;11.05;5.97;;;15.30;99.90;;;;;;5034526;28;20091;-33
2023/06/07 07:17:48;;;;;;;11.18;5.15;;;15.40;99.90;;;;;;5034916;28;20033;-33
2023/06/07 07:20:14;;;;;;;16.17;6.10;;;15.60;99.90;;;;;;5034458;28;20132;-32
2023/06/07 07:22:41;;;;;;;12.15;5.60;;;15.70;99.90;;;;;;5034907;28;20577;-34
2023/06/07 07:25:07;;;;;;;14.05;6.22;;;15.80;99.90;;;;;;5034462;28;20036;-33
2023/06/07 07:27:33;;;;;;;10.98;5.82;;;15.80;99.90;;;;;;5037316;28;20079;-34
2023/06/07 07:30:00;;;;;;;11.38;5.70;;;15.70;99.90;;;;;;5054219;28;20513;-33
2023/06/07 07:32:26;;;;;;;9.52;5.72;;;15.80;99.90;;;;;;5054523;28;20123;-34
2023/06/07 07:34:51;;;;;;;12.48;5.60;;;15.80;99.90;;;;;;5053839;28;20167;-33
2023/06/07 07:37:17;;;;;;;12.88;5.65;;;15.80;99.90;;;;;;5072359;28;20045;-34
2023/06/07 07:39:43;;;;;;;11.27;5.68;;;15.80;99.90;;;;;;5054152;28;20444;-33
2023/06/07 07:42:09;;;;;;;12.60;6.25;;;15.90;99.90;;;;;;5054379;28;20075;-34
2023/06/07 07:44:35;;;;;;;11.40;5.60;;;15.90;99.90;;;;;;5054131;28;20097;-33
2023/06/07 07:47:01;;;;;;;11.68;6.03;;;16.10;99.90;;;;;;5054394;28;20040;-33
2023/06/07 07:49:26;;;;;;;12.82;5.95;;;16.30;99.90;;;;;;5054052;28;20166;-33
2023/06/07 07:51:52;;;;;;;12.30;5.28;;;16.50;99.90;;;;;;5054065;28;20047;-33
2023/06/07 07:54:18;;;;;;;14.35;5.13;;;16.50;99.90;;;;;;5054246;28;20032;-33
2023/06/07 07:56:44;;;;;;;13.73;5.97;;;16.60;99.90;;;;;;5054044;28;20033;-33
2023/06/07 07:59:12;;;;;;;11.88;5.78;;;16.70;99.90;;;;;;5053746;28;20048;-33
2023/06/07 08:01:37;;;;;;;12.73;5.18;;;16.70;99.90;;;;;;5054052;28;20079;-33
2023/06/07 08:04:03;;;;;;;13.43;6.10;;;16.80;99.90;;;;;;5053823;28;20068;-33
2023/06/07 08:06:29;;;;;;;11.43;5.82;;;16.80;99.90;;;;;;5053860;28;20040;-33
2023/06/07 08:08:55;;;;;;;11.23;5.18;;;16.70;99.90;;;;;;5054105;28;20039;-33
2023/06/07 08:11:22;;;;;;;10.07;5.57;;;16.90;99.90;;;;;;5054081;28;20135;-33
2023/06/07 08:13:48;;;;;;;9.27;4.75;;;16.90;99.90;;;;;;5053748;28;20033;-33
2023/06/07 08:16:13;;;;;;;13.68;5.50;;;17.10;99.90;;;;;;5053736;28;20402;-33
2023/06/07 08:18:39;;;;;;;13.68;5.63;;;17.20;99.90;;;;;;5054023;28;20032;-34
2023/06/07 08:21:05;;;;;;;11.82;5.63;;;17.40;99.90;;;;;;5071741;28;20077;-33
2023/06/07 08:23:31;;;;;;;10.98;5.38;;;17.60;99.90;;;;;;5053739;28;20047;-33
2023/06/07 08:26:00;;;;;;;10.90;5.38;;;17.90;99.90;;;;;;5053657;28;20044;-34
2023/06/07 08:28:26;;;;;;;12.77;5.75;;;18.10;99.90;;;;;;5053712;28;20044;-33
2023/06/07 08:30:51;;;;;;;11.70;4.70;;;18.30;99.90;;;;;;5053750;28;20040;-33
2023/06/07 08:33:17;;;;;;;14.52;5.20;;;18.70;99.90;;;;;;5053575;28;20033;-32
2023/06/07 08:35:43;;;;;;;6.40;4.43;;;18.90;99.90;;;;;;5054062;28;20079;-33
2023/06/07 08:38:08;;;;;;;10.68;4.45;;;19.10;99.90;;;;;;5053467;28;20040;-33
2023/06/07 08:40:36;;;;;;;8.93;5.25;;;19.40;99.90;;;;;;5053513;28;20124;-33
2023/06/07 08:43:02;;;;;;;11.85;4.47;;;19.70;99.90;;;;;;5053195;28;20044;-34
2023/06/07 08:45:28;;;;;;;11.63;4.55;;;19.80;99.90;;;;;;5054871;28;20044;-33
2023/06/07 08:47:57;;;;;;;9.77;4.78;;;19.90;99.90;;;;;;5057599;28;20044;-34
2023/06/07 08:50:23;;;;;;;9.40;4.18;;;20.00;99.90;;;;;;5057400;28;20517;-33
2023/06/07 08:52:53;;;;;;;12.70;5.07;;;20.10;99.90;;;;;;5057705;28;20040;-34
2023/06/07 08:55:19;;;;;;;8.18;4.78;;;20.40;99.90;;;;;;5057512;28;20040;-33
2023/06/07 08:57:51;;;;;;;13.07;4.97;;;20.50;99.90;;;;;;5057546;28;20474;-34
2023/06/07 09:00:21;;;;;;;11.55;4.75;;;20.70;99.90;;;;;;5057321;28;20456;-33
2023/06/07 09:02:51;;;;;;;11.45;5.35;;;20.80;99.90;;;;;;5057442;28;20040;-34
2023/06/07 09:05:17;;;;;;;9.60;4.72;;;21.00;99.90;;;;;;5057292;28;20036;-33
2023/06/07 09:07:43;;;;;;;8.65;4.72;;;21.20;99.90;;;;;;5057392;28;20102;-33
2023/06/07 09:10:09;;;;;;;8.93;4.07;;;21.30;99.90;;;;;;5057133;28;20048;-34
2023/06/07 09:12:53;;;;;;;9.50;4.68;;;21.40;99.90;;;;;;5057148;28;20032;-33
2023/06/07 09:15:21;;;;;;;6.45;4.00;;;21.40;99.90;;;;;;5056967;28;20036;-33
2023/06/07 09:18:04;;;;;;;6.82;4.07;;;21.60;99.90;;;;;;5055519;28;20092;-33
2023/06/07 09:20:31;;;;;;;8.25;4.63;;;21.80;99.90;;;;;;5055353;28;20494;-34
2023/06/07 09:23:09;;;;;;;7.93;4.13;;;21.80;99.90;;;;;;5055122;28;20489;-34
2023/06/07 09:25:37;;;;;;;10.50;4.50;;;21.90;99.90;;;;;;5055397;28;20032;-33
2023/06/07 09:28:07;;;;;;;6.40;3.80;;;22.00;99.90;;;;;;5055160;28;20094;-34
2023/06/07 09:30:33;;;;;;;7.15;4.20;;;22.20;99.90;;;;;;5054551;28;20052;-33
2023/06/07 09:32:59;;;;;;;13.25;5.07;;;22.40;99.90;;;;;;5055824;28;20045;-34
2023/06/07 09:35:25;;;;;;;8.55;4.25;;;22.70;99.90;;;;;;5039961;28;20056;-34
2023/06/07 09:37:55;;;;;;;7.47;4.22;;;23.00;99.90;;;;;;5049960;28;20029;-34
2023/06/07 09:40:22;;;;;;;8.95;4.72;;;23.10;99.90;;;;;;5056489;28;20052;-34
2023/06/07 09:42:58;;;;;;;6.43;3.70;;;23.20;99.90;;;;;;5056603;28;20051;-34
2023/06/07 09:45:26;;;;;;;6.18;3.65;;;23.50;97.70;;;;;;5056624;28;20087;-34
2023/06/07 09:48:09;;;;;;;6.47;3.47;;;23.60;99.90;;;;;;5056749;28;20163;-34
2023/06/07 09:50:35;;;;;;;8.55;4.00;;;23.90;99.90;;;;;;5056453;28;20047;-34
2023/06/07 09:53:01;;;;;;;9.70;3.97;;;24.00;99.90;;;;;;5056563;28;20036;-34
2023/06/07 09:55:28;;;;;;;8.38;4.28;;;23.80;99.90;;;;;;5040025;28;20040;-35
2023/06/07 09:57:55;;;;;;;10.30;4.00;;;23.90;98.70;;;;;;5055301;28;20040;-34
2023/06/07 10:00:21;;;;;;;7.22;3.83;;;23.90;96.20;;;;;;5055992;28;20037;-33
2023/06/07 10:02:50;;;;;;;8.50;3.95;;;23.90;94.20;;;;;;5056139;28;20032;-34
2023/06/07 10:05:16;;;;;;;5.78;3.30;;;24.00;93.40;;;;;;5056344;28;20504;-34
2023/06/07 10:07:44;;;;;;;8.38;3.53;;;24.20;93.00;;;;;;5056350;28;20439;-33
2023/06/07 10:10:11;;;;;;;9.80;4.15;;;24.30;91.40;;;;;;5053799;28;20102;-34
2023/06/07 10:12:42;;;;;;;10.15;4.50;;;24.20;90.00;;;;;;5044292;28;20075;-33
2023/06/07 10:15:16;;;;;;;9.52;4.18;;;24.40;83.30;;;;;;5056374;28;20071;-34
2023/06/07 10:17:50;;;;;;;7.47;4.32;;;24.70;88.60;;;;;;5055870;28;20047;-34
2023/06/07 10:20:25;;;;;;;8.32;3.83;;;24.60;88.00;;;;;;5056133;28;20037;-34
2023/06/07 10:23:00;;;;;;;6.60;3.70;;;24.70;78.20;;;;;;5055652;28;20076;-34
2023/06/07 10:25:30;;;;;;;8.77;4.50;;;24.80;84.00;;;;;;5055994;28;20040;-34
2023/06/07 10:28:16;;;;;;;7.82;3.50;;;24.80;82.60;;;;;;5055125;28;20051;-34
2023/06/07 10:30:52;;;;;;;6.47;3.75;;;24.90;77.30;;;;;;5055094;28;20044;-34
2023/06/07 10:33:18;;;;;;;8.57;4.00;;;24.90;77.40;;;;;;5045058;28;20033;-34
2023/06/07 10:35:45;;;;;;;5.32;3.13;;;24.80;73.10;;;;;;5052359;28;20040;-34
2023/06/07 10:38:12;;;;;;;6.97;3.95;;;25.10;79.50;;;;;;5055252;28;20073;-34
2023/06/07 10:40:38;;;;;;;6.38;4.20;;;25.30;77.80;;;;;;5055302;28;20040;-34
2023/06/07 10:43:05;;;;;;;7.47;3.85;;;25.30;76.50;;;;;;5055535;28;20494;-34
2023/06/07 10:45:30;;;;;;;7.68;4.13;;;25.20;72.10;;;;;;5055033;28;20041;-35
2023/06/07 10:47:56;;;;;;;6.07;3.70;;;25.30;71.20;;;;;;5055318;28;20040;-34
2023/06/07 10:50:30;;;;;;;9.85;3.58;;;25.60;70.10;;;;;;5055051;28;20098;-34
2023/06/07 10:53:00;;;;;;;7.15;3.78;;;25.90;68.90;;;;;;5055380;28;20498;-34
2023/06/07 10:55:31;;;;;;;6.32;3.80;;;26.20;65.80;;;;;;5055198;28;20042;-35
2023/06/07 10:57:57;;;;;;;7.50;3.95;;;26.40;65.90;;;;;;5055309;28;20545;-34
2023/06/07 11:00:25;;;;;;;5.32;3.50;;;26.30;64.10;;;;;;5054751;28;20064;-34
2023/06/07 11:03:12;;;;;;;8.23;3.80;;;26.50;64.10;;;;;;5055202;28;20037;-34
2023/06/07 11:05:53;;;;;;;8.05;3.42;;;26.70;60.50;;;;;;5054485;28;20037;-34
2023/06/07 11:08:30;;;;;;;8.43;4.10;;;26.90;62.70;;;;;;5038323;28;20464;-34
2023/06/07 11:11:01;;;;;;;7.63;4.20;;;27.00;59.80;;;;;;5046112;28;20441;-38
2023/06/07 11:13:42;;;;;;;6.55;2.95;;;27.20;60.40;;;;;;5051406;28;20037;-37
2023/06/07 11:16:24;;;;;;;4.75;3.65;;;27.30;60.50;;;;;;5052157;28;20835;-37
2023/06/07 11:19:00;;;;;;;5.30;3.50;;;27.40;58.30;;;;;;5048584;28;20113;-36
2023/06/07 11:21:30;;;;;;;5.32;3.42;;;27.50;58.50;;;;;;5048061;28;20044;-39
2023/06/07 11:24:12;;;;;;;7.53;3.90;;;27.50;57.40;;;;;;5050200;28;20050;-37
2023/06/07 11:26:38;;;;;;;7.35;3.97;;;27.60;56.60;;;;;;5044790;28;20526;-39
2023/06/07 11:29:05;;;;;;;6.93;3.55;;;27.60;56.00;;;;;;5050515;28;20489;-40
2023/06/07 11:31:31;;;;;;;7.53;3.72;;;27.70;56.00;;;;;;5034249;28;20044;-38
2023/06/07 11:33:57;;;;;;;5.90;3.38;;;27.90;56.80;;;;;;5046696;28;20038;-38
2023/06/07 11:36:23;;;;;;;5.90;3.58;;;28.00;55.90;;;;;;5051693;28;20028;-37
2023/06/07 11:38:50;;;;;;;7.60;4.07;;;28.10;55.10;;;;;;5065846;28;20472;-36
2023/06/07 11:41:16;;;;;;;5.68;3.50;;;28.20;54.60;;;;;;5051429;28;20105;-39
2023/06/07 11:43:45;;;;;;;7.25;3.78;;;28.30;54.30;;;;;;5053027;28;20486;-40
2023/06/07 11:46:13;;;;;;;9.05;4.20;;;28.90;54.00;;;;;;5046175;28;20135;-38
2023/06/07 11:48:39;;;;;;;6.22;3.70;;;29.00;52.20;;;;;;5047350;28;20033;-36
2023/06/07 11:51:05;;;;;;;7.53;3.70;;;28.90;52.60;;;;;;5046442;28;20036;-38
2023/06/07 11:53:31;;;;;;;7.45;3.35;;;28.70;52.30;;;;;;5041592;28;20090;-39
2023/06/07 11:56:02;;;;;;;6.70;3.45;;;28.50;51.50;;;;;;5049937;28;20040;-41
2023/06/07 11:58:28;;;;;;;8.88;3.30;;;28.30;50.80;;;;;;5046160;28;20040;-36
2023/06/07 12:00:56;;;;;;;6.47;3.42;;;28.10;51.30;;;;;;5027563;28;20086;-37
2023/06/07 12:03:22;;;;;;;9.75;4.30;;;28.00;51.70;;;;;;5048170;28;20032;-38
2023/06/07 12:05:48;;;;;;;6.13;3.20;;;28.00;51.90;;;;;;5039567;28;20033;-39
2023/06/07 12:08:16;;;;;;;6.90;3.53;;;28.40;52.00;;;;;;5042710;28;20065;-37
2023/06/07 12:10:52;;;;;;;7.80;3.80;;;28.60;51.80;;;;;;5042202;28;20045;-37
2023/06/07 12:13:19;;;;;;;6.22;3.85;;;28.90;52.50;;;;;;5047674;28;20970;-36
2023/06/07 12:15:53;;;;;;;5.55;3.60;;;29.30;51.00;;;;;;5051487;28;20458;-38
2023/06/07 12:18:40;;;;;;;8.35;3.53;;;29.50;50.30;;;;;;5046658;28;20084;-37
2023/06/07 12:21:15;;;;;;;5.97;3.88;;;29.70;50.80;;;;;;5054678;28;20097;-39
2023/06/07 12:23:53;;;;;;;7.15;3.40;;;29.80;49.90;;;;;;5056420;28;20165;-40
2023/06/07 12:26:26;;;;;;;7.47;3.58;;;30.00;48.80;;;;;;5056072;28;20079;-37
2023/06/07 12:28:52;;;;;;;5.13;3.53;;;30.20;49.10;;;;;;5053309;28;20040;-39
2023/06/07 12:31:23;;;;;;;6.43;3.30;;;30.40;48.60;;;;;;5054253;28;20044;-39
2023/06/07 12:34:00;;;;;;;7.10;3.80;;;30.40;47.10;;;;;;5054825;28;20119;-39
2023/06/07 12:36:31;;;;;;;9.55;4.07;;;30.40;47.70;;;;;;5053718;28;20089;-38
2023/06/07 12:39:03;;;;;;;10.43;3.83;;;30.60;47.70;;;;;;5053774;28;20037;-37
2023/06/07 12:41:30;;;;;;;6.90;3.87;;;30.70;47.60;;;;;;5052043;28;20298;-40
2023/06/07 12:43:58;;;;;;;6.90;3.92;;;30.70;47.70;;;;;;5044962;28;20288;-41